This is the latest recevied weather packets stored in our database for station/object KC0UFP. If no packets are shown the sender has not sent any weather packets the latest 10 day(s).
| Time | Temp. | Humidity | Pressure | Rain* | Wind** | Luminosity | Snow |
|---|---|---|---|---|---|---|---|
| 1777227716 | 27.22° C | 51% | 1011.3 hPa | 0 mm | - | 427 W/m² | - |
| 1777227413 | 26.67° C | 51% | 1011.4 hPa | 0 mm | - | 306 W/m² | - |
| 1777227109 | 26.67° C | 52% | 1011.7 hPa | 0 mm | - | 238 W/m² | - |
| 1777226805 | 26.67° C | 51% | 1011.7 hPa | 0 mm | - | 320 W/m² | - |
| 1777226504 | 26.67° C | 51% | 1011.8 hPa | 0 mm | - | 380 W/m² | - |
| 1777226201 | 27.78° C | 49% | 1011.7 hPa | 0 mm | - | 371 W/m² | - |
| 1777225897 | 26.67° C | 51% | 1011.8 hPa | 0 mm | - | 307 W/m² | - |
| 1777225593 | 26.67° C | 53% | 1011.6 hPa | 0 mm | - | 339 W/m² | - |
| 1777225290 | 27.22° C | 52% | 1012 hPa | 0 mm | - | 1155 W/m² | - |
| 1777224987 | 27.78° C | 49% | 1012.2 hPa | 0 mm | - | 1102 W/m² | - |
| 1777224684 | 27.22° C | 53% | 1012 hPa | 0 mm | - | 1202 W/m² | - |
| 1777224378 | 26.11° C | 53% | 1012.2 hPa | 0 mm | - | 342 W/m² | - |
| 1777224075 | 26.67° C | 54% | 1012.3 hPa | 0 mm | - | 756 W/m² | - |
| 1777223772 | 26.11° C | 54% | 1012.3 hPa | 0 mm | - | 435 W/m² | - |
| 1777223468 | 26.11° C | 54% | 1012.3 hPa | 0 mm | - | 352 W/m² | - |
| 1777223166 | 26.11° C | 54% | 1012.3 hPa | 0 mm | - | 379 W/m² | - |
| 1777222863 | 26.67° C | 53% | 1012.3 hPa | 0 mm | - | 423 W/m² | - |
| 1777222560 | 26.11° C | 54% | 1012.3 hPa | 0 mm | - | 462 W/m² | - |
| 1777222257 | 26.11° C | 53% | 1012.4 hPa | 0 mm | - | 460 W/m² | - |
| 1777221956 | 26.67° C | 53% | 1012.3 hPa | 0 mm | - | 365 W/m² | - |
* Rain latest hour (hover to see other rain measurements)
** Current wind speed in m/s (hover to see current wind gust speed)